createdAt,value
2022-10-31T00:01:10.732Z,100274.50
2022-10-31T00:03:37.233Z,100277.72
2022-10-31T00:06:03.824Z,100280.38
2022-10-31T00:08:30.509Z,100279.81
2022-10-31T00:10:57.064Z,100281.69
2022-10-31T00:13:23.567Z,100285.13
2022-10-31T00:15:50.228Z,100279.81
2022-10-31T00:18:16.727Z,100271.84
2022-10-31T00:20:43.211Z,100279.03
2022-10-31T00:23:11.492Z,100279.28
2022-10-31T00:25:40.241Z,100282.47
2022-10-31T00:28:08.401Z,100289.66
2022-10-31T00:30:35.192Z,100287.78
2022-10-31T00:33:03.917Z,100281.69
2022-10-31T00:35:30.491Z,100290.72
2022-10-31T00:37:56.990Z,100290.94
2022-10-31T00:40:23.571Z,100282.75
2022-10-31T00:42:50.077Z,100290.72
2022-10-31T00:45:16.683Z,100282.44
2022-10-31T00:47:43.190Z,100289.59
2022-10-31T00:50:09.780Z,100290.94
2022-10-31T00:52:36.440Z,100284.53
2022-10-31T00:55:03.063Z,100290.63
2022-10-31T00:57:29.604Z,100292.00
2022-10-31T00:59:56.047Z,100289.09
2022-10-31T01:02:22.774Z,100298.19
2022-10-31T01:04:49.363Z,100298.47
2022-10-31T01:07:15.829Z,100303.53
2022-10-31T01:09:42.480Z,100307.31
2022-10-31T01:12:09.574Z,100303.38
2022-10-31T01:14:36.064Z,100302.84
2022-10-31T01:17:02.587Z,100303.16
2022-10-31T01:19:29.139Z,100308.78
2022-10-31T01:21:56.324Z,100304.25
2022-10-31T01:24:22.939Z,100299.50
2022-10-31T01:26:49.533Z,100303.50
2022-10-31T01:29:16.028Z,100310.44
2022-10-31T01:31:42.645Z,100308.31
2022-10-31T01:34:15.981Z,100306.22
2022-10-31T01:36:43.207Z,100304.09
2022-10-31T01:39:15.393Z,100300.38
2022-10-31T01:41:48.188Z,100296.69
2022-10-31T01:44:14.596Z,100308.16
2022-10-31T01:46:58.046Z,100311.13
2022-10-31T01:49:38.455Z,100299.97
2022-10-31T01:52:13.054Z,100310.38
2022-10-31T01:54:44.258Z,100298.69
2022-10-31T01:57:14.095Z,100301.59
2022-10-31T01:59:47.640Z,100302.41
2022-10-31T02:02:16.200Z,100314.44
2022-10-31T02:04:43.881Z,100315.78
2022-10-31T02:07:14.303Z,100314.47
2022-10-31T02:09:41.841Z,100312.38
2022-10-31T02:12:11.202Z,100311.31
2022-10-31T02:14:38.841Z,100310.50
2022-10-31T02:17:05.599Z,100323.84
2022-10-31T02:20:01.836Z,100318.28
2022-10-31T02:22:39.182Z,100317.72
2022-10-31T02:25:48.881Z,100322.56
2022-10-31T02:28:24.387Z,100328.44
2022-10-31T02:31:12.747Z,100321.25
2022-10-31T02:33:54.792Z,100315.13
2022-10-31T02:36:33.228Z,100319.94
2022-10-31T02:39:08.929Z,100319.69
2022-10-31T02:41:59.807Z,100314.09
2022-10-31T02:44:46.448Z,100308.78
2022-10-31T02:47:16.841Z,100310.16
2022-10-31T02:50:03.670Z,100304.84
2022-10-31T02:52:32.953Z,100306.69
2022-10-31T02:54:59.811Z,100308.81
2022-10-31T02:57:33.517Z,100308.81
2022-10-31T03:00:04.521Z,100302.16
2022-10-31T03:03:02.364Z,100310.94
2022-10-31T03:06:21.409Z,100304.56
2022-10-31T03:08:55.623Z,100305.38
2022-10-31T03:11:29.756Z,100296.28
2022-10-31T03:14:09.701Z,100302.97
2022-10-31T03:16:47.585Z,100300.53
2022-10-31T03:19:30.529Z,100293.41
2022-10-31T03:22:05.738Z,100289.63
2022-10-31T03:24:37.216Z,100284.31
2022-10-31T03:27:08.655Z,100285.41
2022-10-31T03:29:38.263Z,100268.34
2022-10-31T03:32:13.372Z,100275.31
2022-10-31T03:34:42.544Z,100273.16
2022-10-31T03:37:15.187Z,100271.59
2022-10-31T03:39:44.779Z,100268.41
2022-10-31T03:42:22.496Z,100265.53
2022-10-31T03:44:56.719Z,100270.56
2022-10-31T03:47:23.708Z,100267.13
2022-10-31T03:49:50.912Z,100276.16
2022-10-31T03:52:29.416Z,100269.47
2022-10-31T03:55:11.745Z,100272.44
2022-10-31T03:57:44.507Z,100272.44
2022-10-31T04:00:16.895Z,100268.41
2022-10-31T04:02:52.871Z,100271.63
2022-10-31T04:05:21.500Z,100271.63
2022-10-31T04:07:50.929Z,100269.22
2022-10-31T04:10:18.168Z,100269.22
2022-10-31T04:12:51.678Z,100271.63
2022-10-31T04:15:20.320Z,100272.66
2022-10-31T04:17:51.353Z,100278.00
2022-10-31T04:20:18.613Z,100267.13
2022-10-31T04:22:45.321Z,100265.25
2022-10-31T04:25:11.830Z,100272.16
2022-10-31T04:27:38.307Z,100284.19
2022-10-31T04:30:05.330Z,100281.50
2022-10-31T04:32:31.803Z,100280.44
2022-10-31T04:34:58.255Z,100278.34
2022-10-31T04:37:24.780Z,100286.34
2022-10-31T04:39:51.318Z,100285.25
2022-10-31T04:42:17.768Z,100278.09
2022-10-31T04:44:44.282Z,100277.81
2022-10-31T04:47:10.775Z,100276.78
2022-10-31T04:49:37.278Z,100274.13
2022-10-31T04:52:04.080Z,100271.19
2022-10-31T04:54:30.601Z,100270.13
2022-10-31T04:56:57.648Z,100264.81
2022-10-31T04:59:24.149Z,100257.63
2022-10-31T05:01:50.767Z,100254.16
2022-10-31T05:04:17.335Z,100251.50
2022-10-31T05:06:43.880Z,100243.22
2022-10-31T05:09:10.406Z,100247.75
2022-10-31T05:11:36.896Z,100238.44
2022-10-31T05:14:03.480Z,100237.59
2022-10-31T05:16:29.991Z,100228.31
2022-10-31T05:18:56.522Z,100223.22
2022-10-31T05:21:23.159Z,100225.88
2022-10-31T05:23:49.831Z,100228.31
2022-10-31T05:26:17.661Z,100231.75
2022-10-31T05:28:44.177Z,100224.31
2022-10-31T05:31:10.726Z,100223.00
2022-10-31T05:33:37.297Z,100219.53
2022-10-31T05:36:04.050Z,100213.16
2022-10-31T05:38:30.500Z,100214.75
2022-10-31T05:41:02.071Z,100214.75
2022-10-31T05:43:29.482Z,100210.00
2022-10-31T05:45:57.146Z,100220.16
2022-10-31T05:48:24.039Z,100207.66
2022-10-31T05:50:50.869Z,100212.97
2022-10-31T05:53:17.800Z,100221.75
2022-10-31T05:55:44.797Z,100209.25
2022-10-31T05:58:11.895Z,100213.50
2022-10-31T06:00:38.383Z,100215.38
2022-10-31T06:05:39.110Z,100218.78
2022-10-31T06:08:05.931Z,100224.38
2022-10-31T06:10:32.504Z,100220.63
2022-10-31T06:12:59.029Z,100221.13
2022-10-31T06:15:25.621Z,100222.97
2022-10-31T06:18:00.194Z,100230.16
2022-10-31T06:20:26.883Z,100222.97
2022-10-31T06:22:53.366Z,100228.03
2022-10-31T06:25:19.980Z,100226.16
2022-10-31T06:27:46.473Z,100220.34
2022-10-31T06:30:13.353Z,100221.69
2022-10-31T06:32:39.849Z,100227.34
2022-10-31T06:35:06.866Z,100215.84
2022-10-31T06:37:33.452Z,100215.63
2022-10-31T06:39:59.930Z,100210.84
2022-10-31T06:42:26.375Z,100210.59
2022-10-31T06:44:52.906Z,100211.13
2022-10-31T06:47:19.400Z,100211.13
2022-10-31T06:49:45.886Z,100212.75
2022-10-31T06:52:12.419Z,100214.34
2022-10-31T06:54:38.938Z,100206.88
2022-10-31T06:57:05.449Z,100211.19
2022-10-31T06:59:32.022Z,100203.72
2022-10-31T07:01:59.766Z,100207.97
2022-10-31T07:04:26.327Z,100207.97
2022-10-31T07:06:53.757Z,100205.88
2022-10-31T07:09:23.283Z,100208.25
2022-10-31T07:11:52.695Z,100210.13
2022-10-31T07:14:19.198Z,100212.56
2022-10-31T07:16:49.668Z,100211.47
2022-10-31T07:19:16.138Z,100210.41
2022-10-31T07:21:42.788Z,100209.91
2022-10-31T07:24:09.316Z,100209.09
2022-10-31T07:26:35.789Z,100200.84
2022-10-31T07:29:02.242Z,100206.97
2022-10-31T07:31:28.775Z,100207.53
2022-10-31T07:33:55.290Z,100199.28
2022-10-31T07:36:21.744Z,100205.38
2022-10-31T07:38:48.254Z,100206.75
2022-10-31T07:41:14.732Z,100217.13
2022-10-31T07:43:41.274Z,100215.81
2022-10-31T07:46:07.844Z,100204.91
2022-10-31T07:48:34.336Z,100209.97
2022-10-31T07:51:00.792Z,100215.03
2022-10-31T07:53:27.299Z,100211.84
2022-10-31T07:55:53.824Z,100220.38
2022-10-31T07:58:20.327Z,100216.41
2022-10-31T08:00:48.418Z,100216.13
2022-10-31T08:03:18.250Z,100206.03
2022-10-31T08:05:48.333Z,100216.16
2022-10-31T08:08:15.748Z,100211.38
2022-10-31T08:10:42.985Z,100222.31
2022-10-31T08:13:12.151Z,100218.31
2022-10-31T08:15:42.126Z,100231.13
2022-10-31T08:18:14.761Z,100232.72
2022-10-31T08:20:42.623Z,100228.72
2022-10-31T08:23:10.908Z,100234.59
2022-10-31T08:25:38.818Z,100233.00
2022-10-31T08:28:07.578Z,100238.63
2022-10-31T08:30:36.168Z,100221.31
2022-10-31T08:33:17.957Z,100220.25
2022-10-31T08:35:45.211Z,100219.47
2022-10-31T08:38:13.200Z,100214.41
2022-10-31T08:40:40.556Z,100219.22
2022-10-31T08:43:14.715Z,100216.81
2022-10-31T08:45:42.311Z,100217.91
2022-10-31T08:48:12.402Z,100228.00
2022-10-31T08:50:39.483Z,100223.75
2022-10-31T08:53:10.083Z,100221.63
2022-10-31T08:55:38.309Z,100218.44
2022-10-31T08:58:07.574Z,100204.31
2022-10-31T09:00:35.615Z,100213.41
2022-10-31T09:03:05.322Z,100211.53
2022-10-31T09:05:32.352Z,100210.44
2022-10-31T09:08:00.850Z,100210.22
2022-10-31T09:10:29.288Z,100212.63
2022-10-31T09:13:00.304Z,100210.47
2022-10-31T09:15:28.565Z,100205.69
2022-10-31T09:17:55.652Z,100201.94
2022-10-31T09:20:22.665Z,100208.63
2022-10-31T09:22:56.093Z,100208.09
2022-10-31T09:25:22.583Z,100198.22
2022-10-31T09:27:49.081Z,100203.03
2022-10-31T09:30:15.592Z,100207.03
2022-10-31T09:32:42.193Z,100207.56
2022-10-31T09:35:09.075Z,100198.22
2022-10-31T09:37:36.024Z,100203.03
2022-10-31T09:40:02.551Z,100200.91
2022-10-31T09:42:41.611Z,100194.50
2022-10-31T09:45:21.868Z,100176.91
2022-10-31T09:48:16.273Z,100173.69
2022-10-31T09:51:17.696Z,100165.66
2022-10-31T09:53:57.845Z,100176.59
2022-10-31T09:56:26.536Z,100175.53
2022-10-31T09:58:56.598Z,100177.38
2022-10-31T10:01:26.096Z,100181.09
2022-10-31T10:03:59.281Z,100176.25
2022-10-31T10:06:30.623Z,100174.91
2022-10-31T10:08:57.540Z,100179.44
2022-10-31T10:11:42.528Z,100183.66
2022-10-31T10:14:27.342Z,100166.03
2022-10-31T10:17:17.090Z,100178.53
2022-10-31T10:20:21.048Z,100172.44
2022-10-31T10:22:55.450Z,100176.16
2022-10-31T10:25:29.481Z,100165.44
2022-10-31T10:28:14.617Z,100173.97
2022-10-31T10:30:45.957Z,100167.00
2022-10-31T10:33:19.509Z,100165.88
2022-10-31T10:35:51.427Z,100166.94
2022-10-31T10:38:33.110Z,100167.41
2022-10-31T10:41:02.888Z,100164.72
2022-10-31T10:43:39.580Z,100164.97
2022-10-31T10:46:30.772Z,100156.09
2022-10-31T10:49:09.359Z,100157.66
2022-10-31T10:51:58.283Z,100146.41
2022-10-31T10:54:43.808Z,100144.22
2022-10-31T10:57:37.841Z,100149.75
2022-10-31T11:00:18.275Z,100139.88
2022-10-31T11:02:46.521Z,100142.22
2022-10-31T11:05:21.205Z,100143.56
2022-10-31T11:07:47.671Z,100140.81
2022-10-31T11:10:15.712Z,100135.72
2022-10-31T11:12:58.240Z,100136.22
2022-10-31T11:15:27.336Z,100143.72
2022-10-31T11:17:56.536Z,100134.63
2022-10-31T11:20:31.428Z,100125.47
2022-10-31T11:23:26.268Z,100116.59
2022-10-31T11:25:55.476Z,100118.38
2022-10-31T11:28:22.883Z,100109.44
2022-10-31T11:30:55.763Z,100106.44
2022-10-31T11:33:29.131Z,100091.00
2022-10-31T11:35:58.142Z,100092.34
2022-10-31T11:38:32.672Z,100094.53
2022-10-31T11:41:08.042Z,100088.22
2022-10-31T11:43:34.621Z,100086.34
2022-10-31T11:46:10.378Z,100073.28
2022-10-31T11:48:37.703Z,100068.28
2022-10-31T11:51:05.963Z,100070.81
2022-10-31T11:53:35.092Z,100071.44
2022-10-31T11:56:16.405Z,100073.97
2022-10-31T11:58:43.424Z,100056.38
2022-10-31T12:01:30.394Z,100055.63
2022-10-31T12:04:13.547Z,100055.38
2022-10-31T12:06:43.249Z,100054.88
2022-10-31T12:09:21.704Z,100037.38
2022-10-31T12:12:13.579Z,100035.19
2022-10-31T12:15:10.944Z,100028.03
2022-10-31T12:17:55.266Z,100025.13
2022-10-31T12:20:52.651Z,100023.72
2022-10-31T12:23:34.488Z,100020.22
2022-10-31T12:26:14.651Z,100020.47
2022-10-31T12:28:59.978Z,100017.25
2022-10-31T12:32:10.929Z,100010.81
2022-10-31T12:34:37.387Z,100008.97
2022-10-31T12:37:09.906Z,100000.91
2022-10-31T12:40:00.147Z,99994.34
2022-10-31T12:42:45.436Z,99983.88
2022-10-31T12:45:37.312Z,99994.19
2022-10-31T12:48:12.619Z,99996.91
2022-10-31T12:50:57.329Z,99988.28
2022-10-31T12:53:42.112Z,99974.25
2022-10-31T12:56:16.860Z,99975.28
2022-10-31T12:59:10.436Z,99960.16
2022-10-31T13:01:42.517Z,99962.16
2022-10-31T13:04:24.006Z,99961.19
2022-10-31T13:06:58.974Z,99948.94
2022-10-31T13:09:37.465Z,99958.09
2022-10-31T13:12:14.270Z,99952.72
2022-10-31T13:14:45.596Z,99952.53
2022-10-31T13:17:45.657Z,99945.06
2022-10-31T13:20:29.512Z,99942.19
2022-10-31T13:23:29.770Z,99938.22
2022-10-31T13:26:07.841Z,99928.69
2022-10-31T13:28:43.112Z,99930.38
2022-10-31T13:31:10.189Z,99912.38
2022-10-31T13:33:50.911Z,99915.66
2022-10-31T13:36:30.383Z,99910.09
2022-10-31T13:39:11.806Z,99897.56
2022-10-31T13:42:00.650Z,99894.41
2022-10-31T13:44:35.873Z,99885.84
2022-10-31T13:47:05.285Z,99880.47
2022-10-31T13:49:31.839Z,99879.09
2022-10-31T13:52:10.508Z,99878.19
2022-10-31T13:54:41.118Z,99873.00
2022-10-31T13:57:43.696Z,99870.31
2022-10-31T14:00:22.244Z,99870.31
2022-10-31T14:02:51.561Z,99866.06
2022-10-31T14:05:26.292Z,99869.81
2022-10-31T14:07:55.274Z,99858.41
2022-10-31T14:10:26.306Z,99848.56
2022-10-31T14:12:54.766Z,99858.19
2022-10-31T14:15:22.744Z,99854.72
2022-10-31T14:17:52.587Z,99854.25
2022-10-31T14:20:18.989Z,99847.28
2022-10-31T14:22:45.605Z,99845.69
2022-10-31T14:25:36.226Z,99827.50
2022-10-31T14:28:33.164Z,99834.28
2022-10-31T14:31:01.223Z,99820.34
2022-10-31T14:33:30.673Z,99832.44
2022-10-31T14:36:41.828Z,99816.25
2022-10-31T14:39:30.436Z,99801.38
2022-10-31T14:42:02.006Z,99808.81
2022-10-31T14:45:06.930Z,99802.75
2022-10-31T14:47:39.794Z,99792.41
2022-10-31T14:50:25.922Z,99785.28
2022-10-31T14:52:58.357Z,99793.31
2022-10-31T14:55:25.906Z,99788.06
2022-10-31T14:57:58.513Z,99784.72
2022-10-31T15:00:28.431Z,99788.00
2022-10-31T15:03:25.063Z,99776.56
2022-10-31T15:05:54.727Z,99777.16
2022-10-31T15:08:34.322Z,99764.03
2022-10-31T15:11:04.736Z,99758.00
2022-10-31T15:13:31.327Z,99752.63
2022-10-31T15:15:58.216Z,99748.66
2022-10-31T15:18:28.442Z,99753.03
2022-10-31T15:20:57.286Z,99751.13
2022-10-31T15:23:30.135Z,99754.41
2022-10-31T15:26:01.676Z,99745.88
2022-10-31T15:28:29.083Z,99747.00
2022-10-31T15:31:01.432Z,99744.19
2022-10-31T15:33:36.560Z,99738.34
2022-10-31T15:36:05.017Z,99735.34
2022-10-31T15:38:31.666Z,99724.75
2022-10-31T15:41:07.483Z,99725.63
2022-10-31T15:43:38.588Z,99724.34
2022-10-31T15:46:09.936Z,99714.78
2022-10-31T15:48:36.611Z,99716.97
2022-10-31T15:51:03.748Z,99709.59
2022-10-31T15:53:49.881Z,99706.03
2022-10-31T15:56:28.901Z,99706.94
2022-10-31T15:58:57.702Z,99705.41
2022-10-31T16:01:25.393Z,99696.09
2022-10-31T16:04:23.399Z,99675.06
2022-10-31T16:07:17.479Z,99660.75
2022-10-31T16:10:04.813Z,99664.91
2022-10-31T16:12:46.278Z,99666.09
2022-10-31T16:15:18.738Z,99677.91
2022-10-31T16:17:48.106Z,99667.09
2022-10-31T16:20:25.975Z,99659.91
2022-10-31T16:22:54.405Z,99653.56
2022-10-31T16:25:25.402Z,99650.97
2022-10-31T16:27:54.787Z,99638.28
2022-10-31T16:30:46.783Z,99650.63
2022-10-31T16:33:36.677Z,99656.84
2022-10-31T16:36:34.755Z,99645.41
2022-10-31T16:39:02.425Z,99637.78
2022-10-31T16:41:29.299Z,99639.72
2022-10-31T16:43:55.879Z,99630.69
2022-10-31T16:46:27.168Z,99633.16
2022-10-31T16:48:55.145Z,99625.22
2022-10-31T16:51:22.047Z,99626.91
2022-10-31T16:53:48.627Z,99613.31
2022-10-31T16:56:23.112Z,99604.81
2022-10-31T16:58:49.727Z,99588.56
2022-10-31T17:01:17.010Z,99584.56
2022-10-31T17:03:43.661Z,99581.41
2022-10-31T17:06:13.432Z,99573.44
2022-10-31T17:08:40.367Z,99571.56
2022-10-31T17:11:16.463Z,99560.38
2022-10-31T17:13:42.976Z,99560.66
2022-10-31T17:16:09.663Z,99556.97
2022-10-31T17:18:36.352Z,99553.03
2022-10-31T17:21:06.240Z,99557.59
2022-10-31T17:23:33.507Z,99552.81
2022-10-31T17:26:00.868Z,99544.28
2022-10-31T17:28:27.399Z,99548.03
2022-10-31T17:30:58.467Z,99519.53
2022-10-31T17:33:25.371Z,99520.63
2022-10-31T17:35:51.860Z,99507.25
2022-10-31T17:38:18.395Z,99510.22
2022-10-31T17:40:45.341Z,99505.94
2022-10-31T17:43:12.613Z,99500.41
2022-10-31T17:45:40.837Z,99502.78
2022-10-31T17:48:09.499Z,99497.22
2022-10-31T17:50:36.236Z,99489.22
2022-10-31T17:53:03.158Z,99482.56
2022-10-31T17:55:34.535Z,99467.41
2022-10-31T17:58:04.371Z,99482.06
2022-10-31T18:00:30.902Z,99486.91
2022-10-31T18:02:57.498Z,99501.34
2022-10-31T18:05:24.176Z,99503.50
2022-10-31T18:07:51.264Z,99506.47
2022-10-31T18:10:18.413Z,99499.03
2022-10-31T18:12:45.009Z,99497.47
2022-10-31T18:15:11.545Z,99489.72
2022-10-31T18:17:41.094Z,99486.56
2022-10-31T18:20:09.686Z,99476.41
2022-10-31T18:22:36.214Z,99479.66
2022-10-31T18:25:03.510Z,99470.88
2022-10-31T18:27:29.964Z,99465.81
2022-10-31T18:29:56.780Z,99459.97
2022-10-31T18:32:23.509Z,99437.59
2022-10-31T18:34:50.104Z,99444.56
2022-10-31T18:37:16.678Z,99426.91
2022-10-31T18:39:43.267Z,99421.56
2022-10-31T18:42:09.855Z,99414.16
2022-10-31T18:44:36.532Z,99408.00
2022-10-31T18:47:03.088Z,99408.31
2022-10-31T18:49:32.800Z,99416.63
2022-10-31T18:51:59.952Z,99413.44
2022-10-31T18:54:26.694Z,99417.19
2022-10-31T18:56:53.315Z,99411.88
2022-10-31T18:59:19.790Z,99402.53
2022-10-31T19:01:46.889Z,99407.88
2022-10-31T19:04:13.688Z,99383.38
2022-10-31T19:06:40.346Z,99388.72
2022-10-31T19:09:11.001Z,99380.97
2022-10-31T19:11:38.746Z,99374.06
2022-10-31T19:14:08.189Z,99362.88
2022-10-31T19:16:35.441Z,99354.84
2022-10-31T19:19:02.523Z,99349.81
2022-10-31T19:21:31.122Z,99345.84
2022-10-31T19:23:58.451Z,99333.59
2022-10-31T19:26:25.954Z,99329.34
2022-10-31T19:28:52.892Z,99304.53
2022-10-31T19:31:19.709Z,99302.97
2022-10-31T19:33:47.108Z,99297.13
2022-10-31T19:36:16.726Z,99285.94
2022-10-31T19:38:45.070Z,99271.00
2022-10-31T19:41:13.361Z,99251.84
2022-10-31T19:43:39.934Z,99242.75
2022-10-31T19:46:09.047Z,99239.56
2022-10-31T19:48:39.309Z,99231.06
2022-10-31T19:51:12.489Z,99219.09
2022-10-31T19:53:39.652Z,99214.84
2022-10-31T19:56:15.656Z,99200.72
2022-10-31T19:58:42.539Z,99204.47
2022-10-31T20:01:13.458Z,99199.41
2022-10-31T20:03:42.523Z,99197.84
2022-10-31T20:06:33.465Z,99185.59
2022-10-31T20:09:03.544Z,99183.19
2022-10-31T20:11:30.715Z,99170.16
2022-10-31T20:14:00.505Z,99165.94
2022-10-31T20:16:27.971Z,99160.88
2022-10-31T20:18:55.072Z,99148.63
2022-10-31T20:21:26.924Z,99142.81
2022-10-31T20:23:57.864Z,99137.75
2022-10-31T20:26:24.836Z,99131.94
2022-10-31T20:28:51.557Z,99126.59
2022-10-31T20:31:20.875Z,99125.81
2022-10-31T20:33:48.950Z,99113.84
2022-10-31T20:36:19.516Z,99100.81
2022-10-31T20:38:46.860Z,99085.06
2022-10-31T20:41:13.916Z,99075.19
2022-10-31T20:43:41.306Z,99056.06
2022-10-31T20:46:17.483Z,99046.56
2022-10-31T20:48:44.828Z,99056.31
2022-10-31T20:53:45.805Z,99043.09
2022-10-31T20:56:17.691Z,99033.22
2022-10-31T20:58:44.844Z,99022.06
2022-10-31T21:01:20.088Z,99016.72
2022-10-31T21:03:47.199Z,99016.22
2022-10-31T21:06:14.756Z,99008.22
2022-10-31T21:08:42.415Z,99005.56
2022-10-31T21:11:11.564Z,98998.66
2022-10-31T21:13:40.823Z,98989.09
2022-10-31T21:16:11.480Z,98981.38
2022-10-31T21:18:39.515Z,98973.09
2022-10-31T21:21:11.056Z,98975.25
2022-10-31T21:23:38.004Z,98962.22
2022-10-31T21:26:13.400Z,98960.13
2022-10-31T21:28:40.367Z,98951.56
2022-10-31T21:31:12.584Z,98951.03
2022-10-31T21:33:39.515Z,98947.28
2022-10-31T21:36:07.030Z,98934.78
2022-10-31T21:38:34.472Z,98920.63
2022-10-31T21:41:14.619Z,98921.44
2022-10-31T21:43:43.957Z,98917.16
2022-10-31T21:46:24.526Z,98931.00
2022-10-31T21:48:51.054Z,98920.63
2022-10-31T21:51:29.217Z,98915.28
2022-10-31T21:54:15.370Z,98905.44
2022-10-31T21:56:42.730Z,98891.28
2022-10-31T21:59:09.672Z,98891.28
2022-10-31T22:01:36.398Z,98881.44
2022-10-31T22:04:04.007Z,98873.44
2022-10-31T22:06:30.988Z,98862.47
2022-10-31T22:09:02.689Z,98864.34
2022-10-31T22:11:29.644Z,98843.81
2022-10-31T22:13:58.410Z,98838.47
2022-10-31T22:16:26.576Z,98845.69
2022-10-31T22:18:55.194Z,98828.59
2022-10-31T22:21:24.467Z,98819.50
2022-10-31T22:23:52.713Z,98818.44
2022-10-31T22:26:19.395Z,98813.88
2022-10-31T22:28:53.347Z,98805.09
2022-10-31T22:31:22.057Z,98800.84
2022-10-31T22:33:50.002Z,98780.31
2022-10-31T22:36:19.300Z,98782.47
2022-10-31T22:38:46.802Z,98766.69
2022-10-31T22:41:15.699Z,98750.69
2022-10-31T22:43:42.524Z,98752.25
2022-10-31T22:46:12.632Z,98735.78
2022-10-31T22:48:41.825Z,98736.25
2022-10-31T22:51:26.393Z,98722.91
2022-10-31T22:53:56.599Z,98706.91
2022-10-31T22:56:26.624Z,98710.38
2022-10-31T22:58:53.378Z,98689.81
2022-10-31T23:01:22.347Z,98682.63
2022-10-31T23:03:49.141Z,98681.53
2022-10-31T23:06:18.945Z,98681.34
2022-10-31T23:08:46.781Z,98683.09
2022-10-31T23:11:23.974Z,98669.00
2022-10-31T23:14:08.966Z,98661.00
2022-10-31T23:16:44.305Z,98651.88
2022-10-31T23:19:19.710Z,98639.34
2022-10-31T23:21:56.331Z,98632.94
2022-10-31T23:24:25.769Z,98620.66
2022-10-31T23:27:11.797Z,98626.19
2022-10-31T23:29:52.886Z,98616.94
2022-10-31T23:32:24.821Z,98612.06
2022-10-31T23:34:53.582Z,98604.56
2022-10-31T23:37:21.898Z,98598.13
2022-10-31T23:39:48.943Z,98590.91
2022-10-31T23:42:16.624Z,98576.47
2022-10-31T23:44:43.464Z,98570.38
2022-10-31T23:47:10.557Z,98563.94
2022-10-31T23:49:37.819Z,98553.25
2022-10-31T23:52:05.069Z,98549.19
2022-10-31T23:54:32.247Z,98536.19
2022-10-31T23:56:59.035Z,98527.41
2022-10-31T23:59:26.606Z,98526.31
